Dallas Fort Worth International Airport
KDFW : rendu visible

Aérodrome :











RETROUVEZ-NOUS SUR...

 
LOGIN :

S'inscrire | Disclaimer

   EN    FR    IT 

 









Légende :    VFR   VFR Marginal   IFR   IFR Intensif   IFR Très Intensif
Visi : 
Plafond : 
>= 8 km
>= 3000ft
5 à 8 km
1000 à 3000 ft
1500m à 5 km
500 à 1000 ft
800 à 1500m
200 à 500 ft
< 800m
< 200 ft
Symboles :   Orages  Brouillard  Fortes neiges  Fortes précipitations  Vent > 20 kt






- Altitude de l'aérodrome : 607 ft
- Code IATA : DFW


KDFW - Dallas Fort Worth International

DERNIER METAR :
  • 271753Z 23010KT 10SM CLR 11/M06 A3034 RMK AO2 SLP273 T01111056 10111 21022 58017

METARs EXPIRÉS :
  • 271653Z 19013KT 10SM FEW005 09/M06 A3036 RMK AO2 SLP281 FU FEW005 W T00941056
  • 271553Z 19009KT 10SM CLR 07/M06 A3038 RMK AO2 SLP288 T00721056

TAF KDFW
Valide du 27 à 18h jusqu'au 29 à 00h UTC


271720Z 2718/2824 20010KT P6SM SKC
FM280800 32006KT P6SM SKC
FM281800 28005KT P6SM SKC



MET'MAP, la Météo Aéronautique d'un coup d'oeil ! - Copyright ORBIFLY Décembre 2007 - Disclaimer

ORBIFLY MET'MAP TEAM :

Programmation & Développement : Alexandra Zaïnal
Sur une idée originale de : Baudouin d'Aumeries
Assistance à la programmation : Marc-Olivier Méhu
Soutien technique & logistique : Manuel Goepfert

Contact : metmap@orbifly.com




SOURCES & CREDITS :

   NOAA       Earth
Advisory